• Join FlightAware (Why Join?)
  • Login
  • US Flag 
08:56PM EDT


 

Airport Tracker/Info


-or-


 

Live Flight TrackerFlight Track Log ✈ LOF3416 ✈ 10-Jul-2013 ✈ KSGF - KORD

Flight Track Log - Related Links

Times and Time Zones

All times are in EDT time to prevent confusion due to time zone crossing. See the LOF3416 flight status page for this flight to view local times or setup timezone preferences in your user account.

Time Position Orientation Groundspeed Altitude Reporting Facility
EDT Latitude Longitude Course Direction KTS MPH feet Rate Location/Type
08:19PM 37.3772 -93.2808 38° Northeast 248 285 5,500  Level Kansas City Center
08:20PM 37.4392 -93.2244 36° Northeast 268 308 8,000 2,160 Climbing Kansas City Center
08:21PM 37.5006 -93.1681 36° Northeast 272 313 10,000 1,680 Climbing Kansas City Center
08:22PM 37.5664 -93.1089 35° Northeast 284 327 11,500 1,260 Climbing Kansas City Center
08:23PM 37.7363 -92.9304 38° Northeast  Level FlightAware Approximate
08:23PM 37.6386 -93.0411 37° Northeast 306 352 12,700  Level Kansas City Center
08:24PM 37.8174 -92.8493 38° Northeast  Level FlightAware Approximate
08:24PM 37.7136 -92.9728 36° Northeast 324 373 14,200  Level Kansas City Center
08:25PM 37.7903 -92.9028 36° Northeast 335 386 15,600 1,260 Climbing Kansas City Center
08:26PM 37.8692 -92.8303 36° Northeast 344 396 16,800 1,320 Climbing Kansas City Center
08:27PM 37.9494 -92.7572 36° Northeast 350 403 18,300 1,440 Climbing Kansas City Center
08:28PM 38.0322 -92.6800 36° Northeast 351 404 19,800 1,440 Climbing Kansas City Center
08:29PM 38.1119 -92.6058 36° Northeast 354 407 21,300 1,560 Climbing Kansas City Center
08:30PM 38.1925 -92.5314 36° Northeast 356 410 23,000 1,440 Climbing Kansas City Center
08:31PM 38.2714 -92.4600 35° Northeast 352 405 24,300 1,140 Climbing Kansas City Center
08:32PM 38.3522 -92.3842 36° Northeast 354 407 25,400 1,080 Climbing Kansas City Center
08:33PM 38.4531 -92.2883 37° Northeast 365 420 26,600 780 Climbing Kansas City Center
08:34PM 38.5411 -92.2069 36° Northeast 376 433 27,000 180 Climbing Kansas City Center
08:35PM 38.6356 -92.1164 37° Northeast 404 465 27,000  Level Kansas City Center
08:36PM 38.7350 -92.0208 37° Northeast 435 501 27,000  Level Kansas City Center
08:37PM 38.8372 -91.9222 37° Northeast 454 522 27,000  Level Kansas City Center
08:38PM 38.9403 -91.8236 37° Northeast 460 529 27,000  Level Kansas City Center
08:39PM 39.0436 -91.7256 36° Northeast 461 531 27,000  Level Kansas City Center
08:40PM 39.1425 -91.6306 37° Northeast 459 528 27,000  Level Kansas City Center
08:41PM 39.2444 -91.5325 37° Northeast 457 526 27,000  Level Kansas City Center
08:42PM 39.3494 -91.4317 37° Northeast 465 535 27,000  Level Kansas City Center
08:43PM 39.4517 -91.3317 37° Northeast 463 533 27,000  Level Kansas City Center
08:44PM 39.5761 -91.2100 37° Northeast 464 534 27,000  Level Kansas City Center
08:45PM 39.6797 -91.1086 37° Northeast 466 536 27,000  Level Kansas City Center
08:46PM 39.7856 -91.0036 37° Northeast 467 537 27,000  Level Kansas City Center
08:47PM 39.8839 -90.9039 38° Northeast 467 537 27,000  Level Kansas City Center
08:48PM 39.9892 -90.7989 37° Northeast 473 544 27,000  Level Kansas City Center
08:49PM 40.0922 -90.6936 38° Northeast 472 543 27,000  Level Kansas City Center
08:50PM 40.1972 -90.5878 38° Northeast 474 545 27,000  Level Kansas City Center
08:51PM 40.3003 -90.4814 38° Northeast 472 543 27,000  Level Kansas City Center
08:52PM 40.4033 -90.3750 38° Northeast 471 542 27,000  Level Kansas City Center
08:53PM 40.5289 -90.2467 38° Northeast 474 545 27,000  Level Kansas City Center
08:55PM 40.6267 -90.1464 38° Northeast 472 543 27,000  Level Kansas City Center
08:56PM 40.7289 -90.0411 38° Northeast 472 543 27,000 -540 Level Kansas City Center
08:57PM 40.8442 -89.9233 38° Northeast 471 542 26,000 -1,140 Descending Kansas City Center
08:58PM 40.9675 -89.7908 39° Northeast 457 526 24,300 -840 Descending Chicago Center
08:59PM 41.0808 -89.6725 38° Northeast 449 517 24,000 -480 Descending Chicago Center
09:00PM 41.1711 -89.5589 43° Northeast 458 527 23,400 -1,500 Descending Chicago Center
09:01PM 41.2342 -89.4042 62° Northeast 474 545 21,000 -2,340 Descending Chicago Center
09:02PM 41.2939 -89.2564 62° Northeast 464 534 18,600 -2,280 Descending Chicago Center
09:03PM 41.3481 -89.1181 62° Northeast 426 490 16,300 -2,340 Descending Chicago Center
09:04PM 41.4028 -88.9806 62° Northeast 424 488 13,900 -2,400 Descending Chicago Center
09:05PM 41.4547 -88.8503 62° Northeast 404 465 11,500 -1,440 Descending Chicago Center
09:06PM 41.5131 -88.7039 62° Northeast 375 432 11,000 -240 Descending Chicago Center
09:07PM 41.5558 -88.5922 63° Northeast 342 394 11,100  Climbing Chicago Center
09:08PM 41.5961 -88.4961 61° Northeast 301 346 11,100 -120 Level Chicago Center
09:09PM 41.6428 -88.4025 56° Northeast 300 345 10,900 -540 Descending Chicago Center
09:10PM 41.6561 -88.2878 81° East 313 360 10,000 -960 Descending Chicago Center
09:11PM 41.6958 -88.2006 59° Northeast 277 319 9,000 -1,440 Descending Chicago Center
09:12PM 41.7547 -88.1339 40° Northeast 275 316 7,100 -1,560 Descending Chicago Center
09:13PM 41.8097 -88.0692 41° Northeast 212 244 5,900 -1,320 Descending Chicago Center
09:14PM 41.8494 -88.0231 41° Northeast 191 220 4,400 -1,500 Descending Chicago Center
09:15PM 41.8833 -87.9833 41° Northeast 165 190 3,300 -1,500 Descending Chicago TRACON
09:16PM 41.9000 -87.9500 56° Northeast 122 140 1,800 -1,080 Descending Chicago TRACON
09:17PM 41.9333 -87.9167 37° Northeast 129 148 1,200 -600 Descending Chicago TRACON
09:19PM 41.9667 -87.9000 37° Northeast  Level FlightAware Approximate
09:26PM 41.9817 -87.9067 37° Northeast  Level Estimated